Time;durP1;ratioP1;P1;durP2;ratioP2;P2;SDS_P1;SDS_P2;PMS_P1;PMS_P2;Temp;Humidity;BMP_temperature;BMP_pressure;BME280_temperature;BME280_humidity;BME280_pressure;Samples;Min_cycle;Max_cycle;Signal;HPM_P1;HPM_P2
2021/06/11 00:00:00;;;;;;;5.03;3.55;;;;;;;22.06;45.67;100786.84;146704;582;46012;-68
2021/06/11 00:02:30;;;;;;;4.68;3.00;;;;;;;22.01;46.16;100789.00;146706;626;46012;-68
2021/06/11 00:05:01;;;;;;;5.62;3.17;;;;;;;21.96;46.13;100791.16;146707;587;46019;-68
2021/06/11 00:07:33;;;;;;;4.65;2.95;;;;;;;21.90;46.04;100781.78;146707;570;46012;-69
2021/06/11 00:10:11;;;;;;;6.20;2.95;;;;;;;21.85;46.04;100780.44;146709;646;46018;-68
2021/06/11 00:12:42;;;;;;;4.53;2.90;;;;;;;21.72;46.22;100772.47;146705;563;46907;-68
2021/06/11 00:15:13;;;;;;;7.03;3.10;;;;;;;21.62;46.42;100772.28;146710;650;46018;-67
2021/06/11 00:17:44;;;;;;;6.00;3.00;;;;;;;21.55;46.40;100773.72;146709;606;46013;-67
2021/06/11 00:20:15;;;;;;;5.12;2.95;;;;;;;21.53;46.37;100772.97;146708;592;46019;-67
2021/06/11 00:22:47;;;;;;;4.90;2.90;;;;;;;21.53;45.97;100775.63;146707;600;46012;-67
2021/06/11 00:25:23;;;;;;;6.80;2.90;;;;;;;21.50;46.32;100774.03;146700;595;46018;-67
2021/06/11 00:27:58;;;;;;;6.05;2.87;;;;;;;21.46;46.37;100772.56;146707;663;46018;-67
2021/06/11 00:30:30;;;;;;;3.60;2.70;;;;;;;21.38;46.29;100756.22;146710;563;46018;-67
2021/06/11 00:33:01;;;;;;;3.75;2.72;;;;;;;21.41;46.27;100764.88;146704;579;46018;-67
2021/06/11 00:35:32;;;;;;;5.15;3.12;;;;;;;21.39;46.38;100765.94;146707;633;46018;-66
2021/06/11 00:38:04;;;;;;;4.82;3.00;;;;;;;21.37;46.28;100765.22;146706;573;46012;-67
2021/06/11 00:40:37;;;;;;;7.32;2.90;;;;;;;21.34;46.49;100766.28;146708;598;46019;-66
2021/06/11 00:43:12;;;;;;;7.27;2.90;;;;;;;21.36;46.83;100775.03;146708;621;46012;-67
2021/06/11 00:45:44;;;;;;;4.45;3.10;;;;;;;21.39;46.73;100768.59;146709;613;46018;-67
2021/06/11 00:48:16;;;;;;;5.77;2.93;;;;;;;21.42;46.70;100771.03;146706;651;46013;-66
2021/06/11 00:50:46;;;;;;;5.03;3.00;;;;;;;21.45;46.88;100763.66;146702;646;46018;-68
2021/06/11 00:53:17;;;;;;;5.00;3.00;;;;;;;21.48;46.55;100767.94;146708;654;46016;-68
2021/06/11 00:55:49;;;;;;;5.80;2.90;;;;;;;21.46;46.59;100767.22;146708;636;46019;-68
2021/06/11 00:58:20;;;;;;;4.57;2.90;;;;;;;21.45;46.85;100771.69;146704;580;46018;-68
2021/06/11 01:00:51;;;;;;;5.95;2.85;;;;;;;21.43;46.53;100765.63;146709;591;46018;-67
2021/06/11 01:03:21;;;;;;;4.85;3.15;;;;;;;21.35;47.16;100769.78;146708;566;46907;-67
2021/06/11 01:05:53;;;;;;;6.35;3.20;;;;;;;21.24;47.11;100758.09;146709;644;46018;-67
2021/06/11 01:08:25;;;;;;;4.57;3.08;;;;;;;21.28;47.23;100772.06;146707;578;46018;-69
2021/06/11 01:10:58;;;;;;;5.28;3.03;;;;;;;21.24;47.55;100770.56;146710;631;46011;-70
2021/06/11 01:13:29;;;;;;;5.55;3.10;;;;;;;21.22;47.42;100772.50;146705;619;46012;-69
2021/06/11 01:15:59;;;;;;;5.87;3.30;;;;;;;21.15;47.66;100765.91;146704;653;46018;-68
2021/06/11 01:18:30;;;;;;;5.03;3.35;;;;;;;21.11;47.53;100759.94;146704;651;47022;-67
2021/06/11 01:21:01;;;;;;;4.87;3.30;;;;;;;21.10;47.73;100756.41;146712;589;46010;-69
2021/06/11 01:24:13;;;;;;;7.50;3.30;;;;;;;21.12;48.00;100764.31;146706;577;46016;-69
2021/06/11 01:26:57;;;;;;;5.70;3.28;;;;;;;21.11;47.99;100763.44;146711;564;45046;-69
2021/06/11 01:29:30;;;;;;;4.78;3.17;;;;;;;21.12;48.00;100757.16;146704;576;47022;-68
2021/06/11 01:32:05;;;;;;;5.03;3.10;;;;;;;21.11;47.92;100759.94;146708;596;46018;-70
2021/06/11 01:34:40;;;;;;;4.25;3.05;;;;;;;21.11;48.07;100760.78;146705;591;46019;-70
2021/06/11 01:37:33;;;;;;;4.68;3.45;;;;;;;21.07;48.15;100756.63;146710;616;46018;-70
2021/06/11 01:40:10;;;;;;;5.53;3.20;;;;;;;21.11;48.17;100770.59;146708;635;46017;-69
2021/06/11 01:42:47;;;;;;;5.95;3.30;;;;;;;21.05;48.10;100765.69;146703;632;46016;-71
2021/06/11 01:45:19;;;;;;;4.37;3.00;;;;;;;21.01;48.43;100764.19;146704;589;46018;-69
2021/06/11 01:47:55;;;;;;;5.72;3.15;;;;;;;20.95;48.25;100766.37;146709;606;46019;-69
2021/06/11 01:50:31;;;;;;;5.47;3.35;;;;;;;20.95;48.11;100755.69;146706;593;46020;-69
2021/06/11 01:53:05;;;;;;;4.93;3.33;;;;;;;20.98;48.07;100753.75;146709;590;46018;-71
2021/06/11 01:55:37;;;;;;;6.18;3.22;;;;;;;20.93;48.27;100762.94;146707;566;46016;-69
2021/06/11 01:58:08;;;;;;;4.18;3.10;;;;;;;20.91;48.09;100758.66;146709;583;46018;-69
2021/06/11 02:00:40;;;;;;;5.03;3.10;;;;;;;20.85;48.00;100753.78;146707;612;46012;-68
2021/06/11 02:03:13;;;;;;;5.72;3.17;;;;;;;20.87;48.28;100762.53;146711;633;45020;-69
2021/06/11 02:05:45;;;;;;;4.90;3.35;;;;;;;20.84;48.34;100749.41;146705;582;46018;-68
2021/06/11 02:08:18;;;;;;;6.05;3.00;;;;;;;20.92;48.18;100763.06;146704;571;46027;-73
2021/06/11 02:10:49;;;;;;;6.90;3.40;;;;;;;20.98;48.46;100759.94;146705;573;46019;-68
2021/06/11 02:13:20;;;;;;;4.25;3.15;;;;;;;20.92;48.54;100749.72;146711;566;46010;-68
2021/06/11 02:15:52;;;;;;;7.03;3.10;;;;;;;20.91;48.73;100753.34;146705;587;46018;-67
2021/06/11 02:18:24;;;;;;;7.30;3.40;;;;;;;20.95;48.79;100762.81;146711;571;46019;-67
2021/06/11 02:20:55;;;;;;;8.00;3.62;;;;;;;20.95;48.99;100769.03;146707;563;47012;-67
2021/06/11 02:23:25;;;;;;;9.43;3.25;;;;;;;20.96;49.18;100765.38;146711;625;47010;-68
2021/06/11 02:25:56;;;;;;;5.40;3.60;;;;;;;20.99;49.14;100771.47;146708;585;46019;-68
2021/06/11 02:28:27;;;;;;;6.72;3.35;;;;;;;21.00;49.31;100768.69;146709;572;46018;-68
2021/06/11 02:30:59;;;;;;;7.82;3.65;;;;;;;21.06;49.04;100775.41;146709;571;46012;-68
2021/06/11 02:33:29;;;;;;;5.12;3.92;;;;;;;21.03;49.18;100779.16;146704;620;46018;-69
2021/06/11 02:36:00;;;;;;;5.35;3.62;;;;;;;21.05;49.05;100771.91;146704;607;46018;-68
2021/06/11 02:38:30;;;;;;;6.32;3.70;;;;;;;21.09;49.28;100773.38;146706;635;46018;-70
2021/06/11 02:41:02;;;;;;;7.85;3.87;;;;;;;21.03;49.41;100780.97;146707;569;46018;-68
2021/06/11 02:43:38;;;;;;;9.65;4.15;;;;;;;20.99;49.37;100776.81;146710;580;46018;-69
2021/06/11 02:46:27;;;;;;;7.37;4.07;;;;;;;20.98;49.48;100775.09;146706;593;47906;-69
2021/06/11 02:49:10;;;;;;;7.20;3.58;;;;;;;20.98;49.32;100775.09;146712;576;47010;-68
2021/06/11 02:51:54;;;;;;;6.12;3.90;;;;;;;20.96;49.16;100776.06;146707;610;46018;-67
2021/06/11 02:54:32;;;;;;;;;;;;;;;20.96;49.33;100769.88;146715;980;46019;-69
2021/06/11 02:57:21;;;;;;;5.05;3.47;;;;;;;20.91;49.19;100777.34;146715;553;46018;-66
2021/06/11 03:00:18;;;;;;;8.75;3.50;;;;;;;20.90;49.44;100778.31;146701;597;46018;-67
2021/06/11 03:03:27;;;;;;;6.37;3.70;;;;;;;20.91;49.00;100780.91;146707;576;46016;-66
2021/06/11 03:06:03;;;;;;;5.95;3.60;;;;;;;20.91;48.97;100790.69;146710;564;46018;-66
2021/06/11 03:08:38;;;;;;;10.57;3.97;;;;;;;20.88;49.14;100793.59;146709;602;46018;-66
2021/06/11 03:11:19;;;;;;;9.88;4.20;;;;;;;20.85;49.23;100800.00;146715;598;45021;-66
2021/06/11 03:13:51;;;;;;;7.78;4.05;;;;;;;20.83;49.09;100798.38;146710;591;46010;-66
2021/06/11 03:16:22;;;;;;;9.90;4.15;;;;;;;20.75;49.42;100806.91;146715;593;46008;-67
2021/06/11 03:19:06;;;;;;;9.00;4.00;;;;;;;20.72;49.62;100805.34;146710;581;46010;-67
2021/06/11 03:21:42;;;;;;;10.77;3.72;;;;;;;20.78;49.50;100812.06;146713;755;46008;-69
2021/06/11 03:24:56;;;;;;;11.32;4.50;;;;;;;20.70;49.75;100817.91;146710;577;46010;-69
2021/06/11 03:27:54;;;;;;;7.87;4.30;;;;;;;20.64;50.08;100815.66;146705;588;45018;-69
2021/06/11 03:30:29;;;;;;;6.93;3.90;;;;;;;20.65;49.92;100814.66;146704;624;46018;-68
2021/06/11 03:33:13;;;;;;;9.10;3.80;;;;;;;20.60;50.12;100816.81;146711;575;46008;-67
2021/06/11 03:35:55;;;;;;;4.68;3.30;;;;;;;20.58;50.20;100816.06;146710;603;46020;-66
2021/06/11 03:38:29;;;;;;;6.70;3.78;;;;;;;20.58;50.39;100821.41;146711;588;46019;-66
2021/06/11 03:41:01;;;;;;;7.72;3.60;;;;;;;20.61;50.64;100814.03;146707;587;46019;-66
2021/06/11 03:43:32;;;;;;;5.90;3.50;;;;;;;20.60;50.82;100815.00;146711;563;46018;-66
2021/06/11 03:46:06;;;;;;;14.30;4.15;;;;;;;20.54;51.05;100814.56;146707;627;46018;-68
2021/06/11 03:48:39;;;;;;;10.38;4.18;;;;;;;20.52;51.03;100812.00;146709;591;46018;-68
2021/06/11 03:51:12;;;;;;;9.20;3.97;;;;;;;20.58;51.03;100811.56;146707;617;46016;-68
2021/06/11 03:53:44;;;;;;;11.43;4.10;;;;;;;20.59;51.08;100812.44;146706;566;46008;-67
2021/06/11 03:56:18;;;;;;;10.07;4.00;;;;;;;20.53;51.39;100816.37;146708;706;46018;-68
2021/06/11 03:58:51;;;;;;;8.07;3.62;;;;;;;20.53;51.32;100812.84;146713;579;46018;-68
2021/06/11 04:01:26;;;;;;;5.57;3.33;;;;;;;20.59;51.24;100813.28;146709;602;46902;-66
2021/06/11 04:03:57;;;;;;;11.65;3.75;;;;;;;20.61;51.50;100799.84;146711;572;46018;-66
2021/06/11 04:06:37;;;;;;;7.35;3.50;;;;;;;20.74;51.36;100805.22;146707;582;46018;-66
2021/06/11 04:09:15;;;;;;;5.00;3.60;;;;;;;20.82;51.20;100810.88;146713;598;46008;-67
2021/06/11 04:11:56;;;;;;;9.32;3.65;;;;;;;20.90;51.22;100811.19;146710;713;46010;-66
2021/06/11 04:14:34;;;;;;;4.85;3.37;;;;;;;21.08;51.17;100800.19;146711;575;46018;-66
2021/06/11 04:17:11;;;;;;;8.77;3.55;;;;;;;21.23;51.10;100804.44;146707;599;46019;-68
2021/06/11 04:19:51;;;;;;;9.57;3.78;;;;;;;21.35;51.29;100807.19;146707;617;46008;-69
2021/06/11 04:22:30;;;;;;;9.77;3.37;;;;;;;21.50;51.31;100807.88;146708;580;46018;-67
2021/06/11 04:25:01;;;;;;;6.75;3.22;;;;;;;21.66;51.21;100803.16;146707;626;46018;-67
2021/06/11 04:27:36;;;;;;;6.80;3.40;;;;;;;21.79;51.07;100809.31;146712;610;46010;-67
2021/06/11 04:30:10;;;;;;;8.13;3.37;;;;;;;21.95;50.75;100802.81;146706;601;46008;-68
2021/06/11 04:32:44;;;;;;;5.00;3.00;;;;;;;22.03;50.23;100804.94;146708;581;46016;-66
2021/06/11 04:35:14;;;;;;;;;;;;;;;22.11;49.61;100803.37;146714;981;46018;-66
2021/06/11 04:37:45;;;;;;;4.97;2.80;;;;;;;22.22;49.60;100807.06;146708;576;46020;-67
2021/06/11 04:40:16;;;;;;;4.40;2.80;;;;;;;22.27;49.54;100803.06;146713;596;46010;-67
2021/06/11 04:42:47;;;;;;;4.62;2.80;;;;;;;22.36;49.52;100811.41;146710;666;46016;-67
2021/06/11 04:45:18;;;;;;;6.25;3.10;;;;;;;22.42;49.38;100809.13;146704;619;46018;-68
2021/06/11 04:47:48;;;;;;;6.55;3.20;;;;;;;22.51;49.35;100809.38;146707;564;47021;-67
2021/06/11 04:50:19;;;;;;;5.37;2.90;;;;;;;22.57;48.91;100807.09;146711;672;46010;-67
2021/06/11 04:52:49;;;;;;;4.18;3.08;;;;;;;22.66;49.22;100810.84;146708;580;46012;-66
2021/06/11 04:55:20;;;;;;;5.95;3.30;;;;;;;22.76;48.67;100819.06;146713;564;46018;-67
2021/06/11 04:57:51;;;;;;;6.30;3.20;;;;;;;22.89;48.56;100824.28;146709;563;46012;-67
2021/06/11 05:00:24;;;;;;;4.95;3.00;;;;;;;22.99;48.43;100826.13;146711;608;46018;-67
2021/06/11 05:02:54;;;;;;;4.28;3.10;;;;;;;23.11;47.97;100824.31;146708;578;46035;-67
2021/06/11 05:05:25;;;;;;;6.12;2.92;;;;;;;23.18;47.31;100831.88;146710;589;46018;-68
2021/06/11 05:07:56;;;;;;;4.30;3.10;;;;;;;23.20;46.88;100830.78;146708;576;47012;-70
2021/06/11 05:10:26;;;;;;;5.32;3.40;;;;;;;23.27;46.89;100844.53;146704;604;46018;-69
2021/06/11 05:12:57;;;;;;;5.15;3.10;;;;;;;23.42;46.69;100845.97;146706;698;46018;-69
2021/06/11 05:15:27;;;;;;;5.60;3.20;;;;;;;23.58;46.29;100855.47;146709;586;46018;-70
2021/06/11 05:18:04;;;;;;;5.68;3.28;;;;;;;23.74;46.51;100855.06;146705;612;46013;-70
2021/06/11 05:20:37;;;;;;;5.93;3.00;;;;;;;23.91;46.38;100853.75;146709;598;46010;-70
2021/06/11 05:23:09;;;;;;;11.38;3.65;;;;;;;24.08;46.42;100855.84;146707;587;46012;-69
2021/06/11 05:25:39;;;;;;;6.53;3.58;;;;;;;24.23;45.51;100858.25;146709;564;46018;-69
2021/06/11 05:28:10;;;;;;;6.28;3.30;;;;;;;24.14;45.22;100855.34;146708;702;46016;-69
2021/06/11 05:30:41;;;;;;;8.50;3.90;;;;;;;24.13;45.40;100855.50;146711;588;46010;-69
2021/06/11 05:33:12;;;;;;;7.75;3.65;;;;;;;24.13;45.32;100861.69;146703;571;46021;-68
2021/06/11 05:35:43;;;;;;;9.35;3.72;;;;;;;24.15;45.67;100861.56;146702;569;46018;-68
2021/06/11 05:38:14;;;;;;;8.23;4.20;;;;;;;24.19;45.47;100867.53;146705;576;46019;-69
2021/06/11 05:40:45;;;;;;;7.18;3.80;;;;;;;24.24;45.76;100873.38;146713;586;45044;-70
2021/06/11 05:43:15;;;;;;;8.25;3.45;;;;;;;24.29;45.58;100873.81;146711;569;45904;-70
2021/06/11 05:45:46;;;;;;;7.40;3.50;;;;;;;24.31;45.47;100871.88;146706;619;46019;-69
2021/06/11 05:48:17;;;;;;;6.75;3.80;;;;;;;24.31;45.54;100872.72;146708;577;46021;-68
2021/06/11 05:50:47;;;;;;;6.50;3.37;;;;;;;24.32;45.78;100871.75;146709;609;46018;-68
2021/06/11 05:53:24;;;;;;;5.75;3.65;;;;;;;24.29;45.57;100869.31;146706;621;46019;-68
2021/06/11 05:55:55;;;;;;;8.32;3.87;;;;;;;24.28;45.56;100866.78;146708;629;46018;-68
2021/06/11 05:58:26;;;;;;;8.27;3.95;;;;;;;24.28;45.55;100880.19;146708;612;46018;-67
2021/06/11 06:00:56;;;;;;;7.22;4.10;;;;;;;24.26;45.74;100879.44;146703;585;46018;-68
2021/06/11 06:03:27;;;;;;;8.20;3.90;;;;;;;24.28;45.62;100875.66;146705;584;46904;-68
2021/06/11 06:05:58;;;;;;;7.12;3.40;;;;;;;24.37;45.56;100884.75;146704;601;46018;-68
2021/06/11 06:08:28;;;;;;;9.20;3.40;;;;;;;24.49;45.52;100883.75;146707;590;46013;-68
2021/06/11 06:10:59;;;;;;;6.03;3.50;;;;;;;24.62;45.18;100885.44;146712;599;46010;-69
2021/06/11 06:13:29;;;;;;;5.65;3.33;;;;;;;24.81;44.80;100882.03;146707;610;46012;-68
2021/06/11 06:16:00;;;;;;;4.53;3.10;;;;;;;24.98;44.88;100886.78;146702;580;48011;-68
2021/06/11 06:18:30;;;;;;;4.95;3.20;;;;;;;25.14;44.73;100880.09;146708;579;46018;-68
2021/06/11 06:21:01;;;;;;;4.97;3.30;;;;;;;25.24;44.70;100882.81;146711;613;46010;-69
2021/06/11 06:23:31;;;;;;;4.97;3.00;;;;;;;25.32;44.35;100880.31;146709;618;46019;-68
2021/06/11 06:26:02;;;;;;;5.30;3.35;;;;;;;25.43;44.77;100890.97;146702;565;45018;-68
2021/06/11 06:28:33;;;;;;;6.80;3.12;;;;;;;25.47;44.69;100883.50;146708;572;46018;-67
2021/06/11 06:31:04;;;;;;;4.15;3.03;;;;;;;25.46;44.09;100881.81;146711;646;46019;-68
2021/06/11 06:33:35;;;;;;;9.43;4.37;;;;;;;25.44;44.15;100883.78;146707;577;46018;-69
2021/06/11 06:36:08;;;;;;;5.85;3.22;;;;;;;25.41;43.80;100889.41;146711;595;46018;-69
2021/06/11 06:38:39;;;;;;;10.43;4.00;;;;;;;25.36;44.35;100887.16;146708;626;46018;-67
2021/06/11 06:41:09;;;;;;;6.70;3.58;;;;;;;25.33;44.31;100890.94;146709;563;46018;-67
2021/06/11 06:43:40;;;;;;;5.28;3.30;;;;;;;25.32;44.22;100883.84;146698;583;46018;-67
2021/06/11 06:46:11;;;;;;;4.60;3.17;;;;;;;25.33;44.58;100884.75;146713;617;46010;-67
2021/06/11 06:48:42;;;;;;;5.78;3.15;;;;;;;25.34;44.33;100886.41;146708;638;47012;-68
2021/06/11 06:51:12;;;;;;;6.00;3.47;;;;;;;25.34;44.22;100884.59;146707;575;46010;-67
2021/06/11 06:53:43;;;;;;;5.70;3.15;;;;;;;25.29;43.67;100872.53;146707;600;47012;-68
2021/06/11 06:56:18;;;;;;;6.85;3.17;;;;;;;25.27;43.74;100874.47;146711;565;46018;-66
2021/06/11 06:58:48;;;;;;;6.62;3.22;;;;;;;25.28;44.27;100876.19;146707;570;46018;-67
2021/06/11 07:01:19;;;;;;;6.53;4.37;;;;;;;25.27;44.24;100872.62;146711;634;46018;-67
2021/06/11 07:03:50;;;;;;;3.60;2.80;;;;;;;25.26;44.20;100873.63;146708;631;47012;-67
2021/06/11 07:06:21;;;;;;;5.43;3.10;;;;;;;25.29;43.82;100872.53;146711;577;46019;-67
2021/06/11 07:08:52;;;;;;;4.00;2.65;;;;;;;25.25;43.83;100866.56;146708;570;46016;-67
2021/06/11 07:11:25;;;;;;;6.15;2.60;;;;;;;25.35;43.65;100866.63;146709;569;47010;-67
2021/06/11 07:13:56;;;;;;;4.45;2.45;;;;;;;25.41;43.14;100876.84;146708;604;47904;-67
2021/06/11 07:16:27;;;;;;;4.70;2.62;;;;;;;25.41;42.77;100871.47;146706;583;46010;-67
2021/06/11 07:18:57;;;;;;;3.97;2.60;;;;;;;25.32;42.91;100866.88;146707;598;46020;-67
2021/06/11 07:21:29;;;;;;;4.95;2.50;;;;;;;25.21;42.34;100864.28;146712;605;46019;-67
2021/06/11 07:23:59;;;;;;;3.30;2.40;;;;;;;25.15;43.04;100865.66;146708;600;46016;-68
2021/06/11 07:26:30;;;;;;;4.95;3.03;;;;;;;25.23;42.70;100862.31;146710;571;46018;-68
2021/06/11 07:29:01;;;;;;;5.47;2.58;;;;;;;25.31;42.90;100854.41;146707;596;47904;-67
2021/06/11 07:31:32;;;;;;;4.47;2.90;;;;;;;25.41;42.58;100857.16;146709;587;46018;-67
2021/06/11 07:34:03;;;;;;;4.05;2.80;;;;;;;25.37;42.53;100870.03;146708;577;46016;-67
2021/06/11 07:36:33;;;;;;;12.40;3.62;;;;;;;25.50;42.95;100862.56;146707;640;46019;-67
2021/06/11 07:39:05;;;;;;;5.43;3.10;;;;;;;25.53;43.21;100858.75;146705;564;46019;-67
2021/06/11 07:41:35;;;;;;;4.53;3.03;;;;;;;25.50;43.34;100861.72;146702;569;45044;-68
2021/06/11 07:44:06;;;;;;;5.57;3.10;;;;;;;25.49;43.41;100858.22;146707;583;45022;-67
2021/06/11 07:46:37;;;;;;;6.85;3.30;;;;;;;25.48;43.88;100858.34;146713;581;45043;-67
2021/06/11 07:49:08;;;;;;;5.70;3.20;;;;;;;25.58;43.84;100855.69;146708;660;46012;-67
2021/06/11 07:51:39;;;;;;;7.05;3.25;;;;;;;25.75;43.67;100855.03;146707;609;46017;-67
2021/06/11 07:54:09;;;;;;;9.18;3.47;;;;;;;26.00;43.51;100855.47;146707;613;46012;-67
2021/06/11 07:56:40;;;;;;;6.82;3.33;;;;;;;26.17;43.10;100854.78;146703;572;48010;-67
2021/06/11 07:59:12;;;;;;;5.43;3.30;;;;;;;26.27;42.53;100853.94;146705;584;47013;-68
2021/06/11 08:01:43;;;;;;;6.40;3.17;;;;;;;26.41;42.02;100856.22;146710;570;46010;-67
2021/06/11 08:04:14;;;;;;;4.95;3.25;;;;;;;26.49;41.49;100850.09;146706;578;46016;-67
2021/06/11 08:06:46;;;;;;;5.80;3.37;;;;;;;26.49;41.53;100850.97;146701;564;46019;-67
2021/06/11 08:09:17;;;;;;;4.57;3.58;;;;;;;26.56;41.92;100850.37;146708;714;46021;-68
2021/06/11 08:11:48;;;;;;;6.15;3.47;;;;;;;26.52;41.17;100847.97;146709;619;46018;-67
2021/06/11 08:14:19;;;;;;;4.85;3.72;;;;;;;26.65;42.22;100854.91;146704;888;46019;-67
2021/06/11 08:16:49;;;;;;;5.20;3.22;;;;;;;26.92;41.81;100856.84;146708;588;47012;-67
2021/06/11 08:19:20;;;;;;;7.10;3.10;;;;;;;27.11;40.26;100858.62;146708;619;45904;-67
2021/06/11 08:21:51;;;;;;;5.35;3.05;;;;;;;27.13;39.39;100853.09;146710;648;46012;-67
2021/06/11 08:24:21;;;;;;;4.20;3.10;;;;;;;27.19;38.89;100857.91;146710;579;46012;-67
2021/06/11 08:26:52;;;;;;;5.62;2.80;;;;;;;27.35;38.40;100855.41;146710;611;46018;-67
2021/06/11 08:29:25;;;;;;;5.15;2.85;;;;;;;27.32;38.66;100852.16;146710;685;46018;-67
2021/06/11 08:31:56;;;;;;;5.90;2.80;;;;;;;27.37;39.37;100852.59;146699;598;46018;-67
2021/06/11 08:34:28;;;;;;;4.28;2.85;;;;;;;27.54;38.88;100850.94;146705;609;46018;-66
2021/06/11 08:36:59;;;;;;;3.90;2.73;;;;;;;27.64;38.93;100849.06;146712;876;45019;-67
2021/06/11 08:39:29;;;;;;;3.87;2.70;;;;;;;27.65;38.36;100847.19;146707;624;46016;-67
2021/06/11 08:42:00;;;;;;;4.62;2.62;;;;;;;27.85;37.96;100856.00;146709;619;46010;-67
2021/06/11 08:44:31;;;;;;;3.50;2.67;;;;;;;27.81;37.29;100844.66;146704;749;47022;-67
2021/06/11 08:47:03;;;;;;;4.68;2.80;;;;;;;27.83;37.50;100844.50;146710;624;46010;-67
2021/06/11 08:49:34;;;;;;;4.80;2.83;;;;;;;27.90;37.27;100836.66;146708;616;46012;-68
2021/06/11 08:52:05;;;;;;;3.17;2.40;;;;;;;27.95;36.70;100839.75;146707;602;46018;-67
2021/06/11 08:54:36;;;;;;;4.45;2.58;;;;;;;28.12;36.83;100849.75;146707;573;46012;-68
2021/06/11 08:57:07;;;;;;;3.78;2.70;;;;;;;28.23;36.84;100842.41;146702;563;46018;-67
2021/06/11 08:59:38;;;;;;;3.37;2.53;;;;;;;28.24;36.65;100846.78;146706;637;46013;-68
2021/06/11 09:02:09;;;;;;;3.40;2.28;;;;;;;28.37;35.72;100842.69;146708;635;46018;-68
2021/06/11 09:04:50;;;;;;;3.53;2.50;;;;;;;28.26;34.84;100842.94;146709;599;46012;-68
2021/06/11 09:07:30;;;;;;;3.35;2.10;;;;;;;28.41;34.90;100832.44;146710;626;45019;-68
2021/06/11 09:10:08;;;;;;;3.20;2.28;;;;;;;28.35;35.00;100839.31;146707;588;46012;-68
2021/06/11 09:12:43;;;;;;;4.22;2.20;;;;;;;28.39;33.89;100834.47;146709;625;46010;-69
2021/06/11 09:15:20;;;;;;;3.03;2.50;;;;;;;28.44;35.41;100833.97;146705;579;46016;-68
2021/06/11 09:17:53;;;;;;;4.97;2.80;;;;;;;28.29;36.73;100833.69;146708;579;46010;-67
2021/06/11 09:20:40;;;;;;;5.80;2.40;;;;;;;28.18;36.55;100830.22;146708;614;46017;-67
2021/06/11 09:23:11;;;;;;;4.03;2.50;;;;;;;28.19;36.28;100831.09;146702;619;46018;-68
2021/06/11 09:25:45;;;;;;;6.37;2.83;;;;;;;28.08;37.52;100828.62;146704;577;47012;-67
2021/06/11 09:28:23;;;;;;;4.45;2.72;;;;;;;28.15;37.79;100827.84;146711;578;45018;-68
2021/06/11 09:30:56;;;;;;;4.70;2.80;;;;;;;28.11;39.62;100841.81;146704;591;46018;-68
2021/06/11 09:33:27;;;;;;;4.05;2.80;;;;;;;28.35;38.37;100842.00;146709;587;46018;-68
2021/06/11 09:36:02;;;;;;;3.72;2.85;;;;;;;28.27;37.81;100836.53;146708;608;46012;-68
2021/06/11 09:38:33;;;;;;;4.65;2.80;;;;;;;28.22;38.09;100838.03;146711;573;46010;-67
2021/06/11 09:41:10;;;;;;;3.70;2.40;;;;;;;28.01;35.56;100823.84;146707;671;46904;-68
2021/06/11 09:43:57;;;;;;;4.75;2.55;;;;;;;27.95;36.45;100819.00;146709;615;46010;-68
2021/06/11 09:46:46;;;;;;;3.75;2.58;;;;;;;27.99;38.73;100819.56;146704;566;47021;-67
2021/06/11 09:49:17;;;;;;;5.80;2.90;;;;;;;28.15;38.34;100810.81;146703;630;46018;-68
2021/06/11 09:52:07;;;;;;;4.07;2.60;;;;;;;28.09;38.11;100808.72;146706;599;46019;-68
2021/06/11 09:54:38;;;;;;;3.40;2.78;;;;;;;28.20;37.18;100808.50;146711;622;46010;-68
2021/06/11 09:57:25;;;;;;;3.55;2.70;;;;;;;28.02;38.06;100806.66;146703;617;46018;-67
2021/06/11 09:59:55;;;;;;;3.95;2.70;;;;;;;28.09;37.94;100806.87;146711;602;46018;-68
2021/06/11 10:02:26;;;;;;;5.30;2.85;;;;;;;28.11;37.91;100801.31;146707;602;46012;-67
2021/06/11 10:04:57;;;;;;;4.82;2.75;;;;;;;28.12;36.28;100800.31;146710;583;46010;-68
2021/06/11 10:07:29;;;;;;;4.03;2.53;;;;;;;28.20;36.46;100798.53;146706;603;46019;-67
2021/06/11 10:09:59;;;;;;;5.20;2.90;;;;;;;28.32;36.42;100807.25;146708;600;46018;-68
2021/06/11 10:12:30;;;;;;;4.55;2.75;;;;;;;28.55;35.05;100806.72;146707;566;46017;-68
2021/06/11 10:15:01;;;;;;;4.35;2.70;;;;;;;28.66;35.59;100813.72;146701;574;46019;-68
2021/06/11 10:17:31;;;;;;;6.25;2.70;;;;;;;28.52;36.79;100807.88;146705;566;47903;-68
2021/06/11 10:20:02;;;;;;;4.15;2.70;;;;;;;28.54;37.40;100808.56;146709;581;46012;-67
2021/06/11 10:22:34;;;;;;;4.60;2.87;;;;;;;28.49;37.65;100797.41;146705;617;46012;-67
2021/06/11 10:25:12;;;;;;;3.60;2.67;;;;;;;28.58;37.01;100800.16;146708;579;46018;-67
2021/06/11 10:27:43;;;;;;;4.10;2.80;;;;;;;28.59;37.71;100796.44;146708;616;46018;-67
2021/06/11 10:30:15;;;;;;;4.07;2.87;;;;;;;28.47;37.70;100796.72;146710;636;46010;-67
2021/06/11 10:32:48;;;;;;;3.65;2.72;;;;;;;28.44;37.99;100793.47;146709;602;47012;-67
2021/06/11 10:35:48;;;;;;;4.60;2.83;;;;;;;28.38;37.77;100794.97;146707;682;46019;-67
2021/06/11 10:38:37;;;;;;;3.95;2.40;;;;;;;28.25;38.29;100798.06;146704;551;46018;-68
2021/06/11 10:41:08;;;;;;;3.70;2.70;;;;;;;28.42;38.00;100799.03;146703;564;46012;-68
2021/06/11 10:43:39;;;;;;;4.35;2.70;;;;;;;28.58;38.33;100800.16;146706;577;46012;-68
2021/06/11 10:46:29;;;;;;;8.40;2.80;;;;;;;28.42;37.88;100800.88;146709;632;47010;-67
2021/06/11 10:49:07;;;;;;;3.33;2.72;;;;;;;28.58;38.37;100798.28;146707;579;46012;-67
2021/06/11 10:51:47;;;;;;;3.72;2.60;;;;;;;28.67;37.68;100793.81;146708;619;46019;-67
2021/06/11 10:54:28;;;;;;;4.53;3.00;;;;;;;28.80;38.14;100796.09;146707;585;46016;-67
2021/06/11 10:57:18;;;;;;;5.37;3.10;;;;;;;28.87;37.22;100783.66;146711;592;45020;-67
2021/06/11 10:59:50;;;;;;;4.97;2.90;;;;;;;29.04;36.69;100793.50;146708;563;46013;-68
2021/06/11 11:02:52;;;;;;;3.47;2.58;;;;;;;28.91;36.76;100778.75;146710;593;46010;-67
2021/06/11 11:05:37;;;;;;;5.00;2.80;;;;;;;28.94;36.35;100789.22;146705;566;46013;-68
2021/06/11 11:08:10;;;;;;;4.10;2.62;;;;;;;28.97;36.85;100783.53;146703;569;46018;-68
2021/06/11 11:10:43;;;;;;;3.67;2.70;;;;;;;28.90;36.47;100771.66;146707;578;46016;-67
2021/06/11 11:13:36;;;;;;;6.20;2.62;;;;;;;28.92;36.59;100769.66;146706;594;46019;-68
2021/06/11 11:16:23;;;;;;;5.63;2.83;;;;;;;29.07;36.12;100772.59;146707;605;46020;-67
2021/06/11 11:18:54;;;;;;;6.40;4.12;;;;;;;29.15;35.86;100773.44;146709;607;46010;-67
2021/06/11 11:21:35;;;;;;;4.78;2.72;;;;;;;29.24;35.48;100770.78;146703;582;47020;-68
2021/06/11 11:24:12;;;;;;;6.25;2.95;;;;;;;29.11;36.11;100774.78;146711;588;46010;-67
2021/06/11 11:26:53;;;;;;;3.67;2.75;;;;;;;29.05;36.29;100759.25;146707;706;46017;-68
2021/06/11 11:29:23;;;;;;;4.03;2.85;;;;;;;28.87;36.43;100752.06;146707;610;47013;-67
2021/06/11 11:31:54;;;;;;;5.12;3.10;;;;;;;28.65;37.04;100748.09;146706;590;46018;-67
2021/06/11 11:34:25;;;;;;;7.28;3.03;;;;;;;28.82;36.79;100756.25;146703;570;46018;-67
2021/06/11 11:36:56;;;;;;;3.95;2.60;;;;;;;28.66;37.02;100754.31;146702;585;48021;-67
2021/06/11 11:39:26;;;;;;;11.00;3.40;;;;;;;28.67;37.42;100753.31;146708;565;46010;-68
2021/06/11 11:41:57;;;;;;;4.65;2.97;;;;;;;28.71;37.07;100752.00;146707;581;47020;-67
2021/06/11 11:44:29;;;;;;;5.05;2.80;;;;;;;28.74;37.59;100751.66;146708;592;46019;-67
2021/06/11 11:47:02;;;;;;;5.75;2.72;;;;;;;28.55;37.47;100739.19;146705;585;46018;-68
2021/06/11 11:49:33;;;;;;;3.58;2.70;;;;;;;28.49;38.21;100738.00;146711;583;46010;-67
2021/06/11 11:52:04;;;;;;;5.78;3.17;;;;;;;28.38;38.81;100735.56;146709;710;46905;-67
2021/06/11 11:54:35;;;;;;;3.47;2.72;;;;;;;28.24;38.86;100741.53;146708;579;46018;-68